Orlando, Florida
Traffic Map
Current Weather Conditions
Orlando, Florida
Clear
Clear
26°
Feels Like: 28°
Wind Chill: 26° Ceiling: Unl
Heat Index: 28° Visibility: 10mi
Dew Point: 22° Wind: 6mph
Humidity: 79% Direction: 220° (SW)
Pressure: 29.9in Gusts: 0mph
Raw Report DataKORL 180053Z 22005KT 10SM CLR 26/22 A2990 RMK AO2 SLP127 T02610222
Traffic Incident Summary
Active as of:
Severity:
Category:
InformationThere was an issue retrieving the traffic information for this location. Please try a different location or try again shortly.
Advertisements
Track Severe Weather on mobile